Time;durP1;ratioP1;P1;durP2;ratioP2;P2;SDS_P1;SDS_P2;PMS_P1;PMS_P2;Temp;Humidity;BMP_temperature;BMP_pressure;BME280_temperature;BME280_humidity;BME280_pressure;Samples;Min_cycle;Max_cycle;Signal;HPM_P1;HPM_P2
2022/03/16 00:01:59;;;;;;;;;;;7.30;99.90;;;6.65;100.00;97906.19;4978046;28;20372;-34
2022/03/16 00:04:24;;;;;;;;;;;7.30;99.90;;;6.65;100.00;97900.97;4977571;28;19964;-37
2022/03/16 00:06:50;;;;;;;;;;;7.30;99.90;;;6.61;100.00;97906.28;4979654;28;20462;-35
2022/03/16 00:09:16;;;;;;;;;;;7.30;99.90;;;6.61;100.00;97908.91;4979317;28;19922;-35
2022/03/16 00:11:41;;;;;;;;;;;7.20;99.90;;;6.59;100.00;97916.78;4977954;28;19921;-36
2022/03/16 00:14:07;;;;;;;;;;;7.20;99.90;;;6.55;100.00;97915.09;4980530;28;19913;-37
2022/03/16 00:16:32;;;;;;;;;;;7.20;99.90;;;6.54;100.00;97907.25;4999906;28;19922;-36
2022/03/16 00:18:58;;;;;;;;;;;7.20;99.90;;;6.53;100.00;97919.47;4978824;28;19934;-36
2022/03/16 00:21:24;;;;;;;;;;;7.20;99.90;;;6.53;100.00;97911.59;4975033;28;20438;-38
2022/03/16 00:23:49;;;;;;;;;;;7.20;99.90;;;6.63;100.00;97907.97;4979410;28;19933;-32
2022/03/16 00:26:15;;;;;;;;;;;7.20;99.90;;;6.66;100.00;97907.09;4976699;28;19920;-37
2022/03/16 00:28:41;;;;;;;;;;;7.30;99.90;;;6.64;100.00;97899.25;4978850;28;19932;-34
2022/03/16 00:31:06;;;;;;;;;;;7.30;99.90;;;6.64;100.00;97899.25;4978373;28;20388;-37
2022/03/16 00:33:33;;;;;;;;;;;7.30;99.90;;;6.68;100.00;97906.16;4974911;28;19921;-35
2022/03/16 00:35:58;;;;;;;;;;;7.30;99.90;;;6.67;100.00;97909.66;4976762;28;19920;-38
2022/03/16 00:38:24;;;;;;;;;;;7.30;99.90;;;6.63;100.00;97907.13;4980723;28;19918;-38
2022/03/16 00:40:50;;;;;;;;;;;7.30;99.90;;;6.61;100.00;97909.75;4982114;28;19922;-35
2022/03/16 00:43:15;;;;;;;;;;;7.20;99.90;;;6.60;100.00;97905.38;4980331;28;19960;-34
2022/03/16 00:45:41;;;;;;;;;;;7.20;99.90;;;6.61;100.00;97903.66;4983279;28;19917;-35
2022/03/16 00:48:06;;;;;;;;;;;7.20;99.90;;;6.56;100.00;97910.72;4980587;28;19921;-36
2022/03/16 00:50:34;;;;;;;;;;;7.20;99.90;;;6.55;100.00;97903.72;4981330;28;19922;-35
2022/03/16 00:53:00;;;;;;;;;;;7.20;99.90;;;6.57;100.00;97913.31;4980918;28;19917;-37
2022/03/16 00:55:26;;;;;;;;;;;7.20;99.90;;;6.59;100.00;97905.44;4981800;28;19952;-34
2022/03/16 00:57:52;;;;;;;;;;;7.20;99.90;;;6.61;100.00;97896.66;4982238;28;19914;-38
2022/03/16 01:00:17;;;;;;;;;;;7.20;99.90;;;6.69;100.00;97896.53;4981572;28;19914;-33
2022/03/16 01:02:43;;;;;;;;;;;7.30;99.90;;;6.69;100.00;97902.69;4976367;28;20248;-37
2022/03/16 01:05:09;;;;;;;;;;;7.30;99.90;;;6.68;100.00;97890.44;4982864;28;19929;-35
2022/03/16 01:07:34;;;;;;;;;;;7.30;99.90;;;6.71;100.00;97892.16;4980748;28;20016;-34
2022/03/16 01:10:00;;;;;;;;;;;7.30;99.90;;;6.73;100.00;97898.25;4977680;28;19989;-36
2022/03/16 01:12:25;;;;;;;;;;;7.30;99.90;;;6.74;100.00;97893.88;4978727;28;20386;-34
2022/03/16 01:14:51;;;;;;;;;;;7.30;99.90;;;6.75;100.00;97895.59;4980991;28;19924;-38
2022/03/16 01:17:17;;;;;;;;;;;7.30;99.90;;;6.72;100.00;97887.78;4980794;28;19922;-32
2022/03/16 01:19:42;;;;;;;;;;;7.30;99.90;;;6.74;100.00;97884.25;4978633;28;19917;-35
2022/03/16 01:22:08;;;;;;;;;;;7.30;99.90;;;6.71;100.00;97888.66;4979824;28;19961;-36
2022/03/16 01:24:34;;;;;;;;;;;7.30;99.90;;;6.74;100.00;97893.88;4981268;28;20005;-32
2022/03/16 01:26:59;;;;;;;;;;;7.30;99.90;;;6.69;100.00;97884.31;4982947;28;19920;-37
2022/03/16 01:29:25;;;;;;;;;;;7.30;99.90;;;6.75;100.00;97891.25;4995691;28;19921;-37
2022/03/16 01:31:54;;;;;;;;;;;7.30;99.90;;;6.79;100.00;97894.69;4990689;28;19914;-36
2022/03/16 01:34:21;;;;;;;;;;;7.30;99.90;;;6.82;100.00;97890.25;4988796;28;19921;-36
2022/03/16 01:36:47;;;;;;;;;;;7.40;99.90;;;6.83;100.00;97883.25;4991147;28;20012;-35
2022/03/16 01:39:13;;;;;;;;;;;7.40;99.90;;;6.81;100.00;97887.66;4978821;28;20354;-37
2022/03/16 01:41:39;;;;;;;;;;;7.40;99.90;;;6.76;100.00;97887.72;4978598;28;19943;-36
2022/03/16 01:44:05;;;;;;;;;;;7.40;99.90;;;6.77;100.00;97888.59;4979309;28;19971;-36
2022/03/16 01:46:31;;;;;;;;;;;7.30;99.90;;;6.73;100.00;97884.25;4978752;28;20426;-36
2022/03/16 01:48:58;;;;;;;;;;;7.30;99.90;;;6.83;100.00;97899.84;4979982;28;19913;-38
2022/03/16 01:51:24;;;;;;;;;;;7.40;99.90;;;6.86;100.00;97901.56;4980591;28;20184;-36
2022/03/16 01:53:50;;;;;;;;;;;7.40;99.90;;;6.87;100.00;97901.56;4977970;28;19922;-36
2022/03/16 01:56:16;;;;;;;;;;;7.40;99.90;;;6.90;100.00;97903.25;4964756;28;20001;-36
2022/03/16 01:58:42;;;;;;;;;;;7.40;99.90;;;6.91;100.00;97899.75;4977254;28;19993;-35
2022/03/16 02:01:08;;;;;;;;;;;7.40;99.90;;;6.85;100.00;97892.81;4975889;28;19953;-37
2022/03/16 02:03:33;;;;;;;;;;;7.40;99.90;;;6.88;100.00;97891.94;4979703;28;20048;-35
2022/03/16 02:06:00;;;;;;;;;;;7.40;99.90;;;6.91;100.00;97893.63;4977397;28;19917;-34
2022/03/16 02:08:29;;;;;;;;;;;7.40;99.90;;;6.90;100.00;97895.38;4980008;28;20363;-35
2022/03/16 02:10:55;;;;;;;;;;;7.40;99.90;;;6.87;100.00;97890.19;4980131;28;19914;-36
2022/03/16 02:13:21;;;;;;;;;;;7.40;99.90;;;6.88;100.00;97891.94;4979522;28;19920;-37
2022/03/16 02:15:46;;;;;;;;;;;7.40;99.90;;;6.88;100.00;97891.94;4979002;28;20371;-35
2022/03/16 02:18:13;;;;;;;;;;;7.50;99.90;;;6.86;100.00;97891.09;4980426;28;19913;-34
2022/03/16 02:20:38;;;;;;;;;;;7.40;99.90;;;6.87;100.00;97891.06;4980231;28;19921;-36
2022/03/16 02:23:06;;;;;;;;;;;7.40;99.90;;;6.89;100.00;97893.63;4980894;28;20239;-35
2022/03/16 02:25:32;;;;;;;;;;;7.40;99.90;;;6.90;100.00;97890.16;4978031;28;20020;-39
2022/03/16 02:27:58;;;;;;;;;;;7.40;99.90;;;6.90;100.00;97895.38;4977082;28;19956;-36
2022/03/16 02:30:28;;;;;;;;;;;7.50;99.90;;;6.91;100.00;97891.00;4980009;28;20028;-37
2022/03/16 02:32:54;;;;;;;;;;;7.50;99.90;;;6.94;100.00;97891.81;4978992;28;19914;-36
2022/03/16 02:35:20;;;;;;;;;;;7.50;99.90;;;6.95;100.00;97896.19;4980185;28;19921;-34
2022/03/16 02:37:45;;;;;;;;;;;7.50;99.90;;;6.97;100.00;97897.03;4982000;28;22260;-34
2022/03/16 02:40:17;;;;;;;;;;;7.50;99.90;;;6.97;100.00;97890.94;4977777;28;19921;-35
2022/03/16 02:42:42;;;;;;;;;;;7.50;99.90;;;6.97;100.00;97896.19;4978576;28;19929;-37
2022/03/16 02:45:08;;;;;;;;;;;7.50;99.90;;;6.97;100.00;97894.41;4977719;28;19941;-35
2022/03/16 02:47:34;;;;;;;;;;;7.50;99.90;;;6.95;100.00;97893.56;4977841;28;19925;-34
2022/03/16 02:50:03;;;;;;;;;;;7.50;99.90;;;6.96;100.00;97891.81;4977723;28;19940;-35
2022/03/16 02:52:29;;;;;;;;;;;7.50;99.90;;;6.94;100.00;97899.69;4978840;28;19922;-38
2022/03/16 02:54:54;;;;;;;;;;;7.50;99.90;;;6.93;100.00;97900.59;4977831;28;19948;-38
2022/03/16 02:57:20;;;;;;;;;;;7.50;99.90;;;6.93;100.00;97900.59;4977225;28;20252;-38
2022/03/16 02:59:46;;;;;;;;;;;7.50;99.90;;;6.94;100.00;97899.69;4978381;28;19925;-34
2022/03/16 03:02:12;;;;;;;;;;;7.50;99.90;;;6.95;100.00;97900.56;4980079;28;19922;-37
2022/03/16 03:04:37;;;;;;;;;;;7.50;99.90;;;6.90;100.00;97898.00;4979640;28;19921;-36
2022/03/16 03:07:04;;;;;;;;;;;7.50;99.90;;;6.86;100.00;97897.19;4978232;28;20076;-36
2022/03/16 03:09:29;;;;;;;;;;;7.40;99.90;;;6.90;100.00;97899.78;4978352;28;20376;-35
2022/03/16 03:11:59;;;;;;;;;;;7.40;99.90;;;6.88;100.00;97899.78;4978684;28;19927;-38
2022/03/16 03:14:26;;;;;;;;;;;7.40;99.90;;;6.90;100.00;97899.78;4979550;28;19921;-35
2022/03/16 03:16:51;;;;;;;;;;;7.40;99.90;;;6.89;100.00;97896.25;4977676;28;19937;-37
2022/03/16 03:19:17;;;;;;;;;;;7.40;99.90;;;6.84;100.00;97888.47;4977966;28;20020;-35
2022/03/16 03:21:42;;;;;;;;;;;7.50;99.90;;;6.90;100.00;97908.50;4976681;28;20330;-34
2022/03/16 03:24:08;;;;;;;;;;;7.50;99.90;;;6.90;100.00;97907.63;4978683;28;20635;-35
2022/03/16 03:26:34;;;;;;;;;;;7.50;99.90;;;6.88;100.00;97902.41;4977766;28;20104;-37
2022/03/16 03:29:00;;;;;;;;;;;7.40;99.90;;;6.85;100.00;97910.31;4978722;28;19914;-35
2022/03/16 03:31:25;;;;;;;;;;;7.40;99.90;;;6.85;100.00;97907.69;4978822;28;20260;-36
2022/03/16 03:33:51;;;;;;;;;;;7.40;99.90;;;6.86;100.00;97910.28;4980687;28;19921;-37
2022/03/16 03:36:16;;;;;;;;;;;7.40;99.90;;;6.82;100.00;97907.72;4992583;28;19933;-36
2022/03/16 03:38:42;;;;;;;;;;;7.40;99.90;;;6.81;100.00;97906.88;4979831;28;19921;-38
2022/03/16 03:41:08;;;;;;;;;;;7.40;99.90;;;6.82;100.00;97907.72;4980425;28;19968;-37
2022/03/16 03:43:33;;;;;;;;;;;7.40;99.90;;;6.79;100.00;97908.66;4990362;28;20023;-34
2022/03/16 03:45:59;;;;;;;;;;;7.40;99.90;;;6.76;100.00;97908.69;4978812;28;19921;-36
2022/03/16 03:48:25;;;;;;;;;;;7.40;99.90;;;6.72;100.00;97914.88;4979935;28;20430;-34
2022/03/16 03:50:50;;;;;;;;;;;7.30;99.90;;;6.66;100.00;97904.47;4978280;28;20383;-35
2022/03/16 03:53:16;;;;;;;;;;;7.30;99.90;;;6.63;100.00;97907.13;4978898;28;19917;-34
2022/03/16 03:55:41;;;;;;;;;;;7.20;99.90;;;6.62;100.00;97915.84;4979907;28;19922;-36
2022/03/16 03:58:07;;;;;;;;;;;7.20;99.90;;;6.60;100.00;97910.63;4978413;28;19963;-36
2022/03/16 04:00:33;;;;;;;;;;;7.20;99.90;;;6.61;100.00;97911.53;4975559;28;19972;-38
2022/03/16 04:02:58;;;;;;;;;;;7.20;99.90;;;6.56;100.00;97913.34;4958793;28;19913;-37
2022/03/16 04:05:24;;;;;;;;;;;7.20;99.90;;;6.61;100.00;97925.47;4961653;28;19918;-38
2022/03/16 04:07:50;;;;;;;;;;;7.20;99.90;;;6.65;100.00;97915.81;4980141;28;20011;-38
2022/03/16 04:10:16;;;;;;;;;;;7.20;99.90;;;6.59;100.00;97908.06;4978841;28;19967;-37
2022/03/16 04:12:42;;;;;;;;;;;7.20;99.90;;;6.69;100.00;97922.75;4982051;28;20090;-36
2022/03/16 04:15:08;;;;;;;;;;;7.20;99.90;;;6.74;100.00;97923.56;4965798;28;20493;-37
2022/03/16 04:17:34;;;;;;;;;;;7.30;99.90;;;6.75;100.00;97920.06;4963360;28;20339;-34
2022/03/16 04:19:59;;;;;;;;;;;7.30;99.90;;;6.76;100.00;97911.31;4984217;28;19921;-37
2022/03/16 04:22:26;;;;;;;;;;;7.30;99.90;;;6.77;100.00;97922.69;4980931;28;19917;-36
2022/03/16 04:24:52;;;;;;;;;;;7.30;99.90;;;6.80;100.00;97920.88;4977203;28;20012;-35
2022/03/16 04:27:18;;;;;;;;;;;7.30;99.90;;;6.72;100.00;97916.63;4982871;28;20435;-37
2022/03/16 04:29:43;;;;;;;;;;;7.40;99.90;;;6.83;100.00;97930.44;4981614;28;19925;-34
2022/03/16 04:32:09;;;;;;;;;;;7.40;99.90;;;6.85;100.00;97926.03;4980028;28;19967;-35
2022/03/16 04:34:35;;;;;;;;;;;7.40;99.90;;;6.87;100.00;97926.88;4981612;28;19956;-35
2022/03/16 04:37:00;;;;;;;;;;;7.40;99.90;;;6.84;100.00;97930.44;4981271;28;20299;-35
2022/03/16 04:39:26;;;;;;;;;;;7.40;99.90;;;6.83;100.00;97926.06;4979654;28;19926;-31
2022/03/16 04:41:51;;;;;;;;;;;7.40;99.90;;;6.85;100.00;97926.91;4974678;28;20418;-35
2022/03/16 04:44:17;;;;;;;;;;;7.40;99.90;;;6.90;100.00;97921.59;4979913;28;19925;-35
2022/03/16 04:46:43;;;;;;;;;;;7.40;99.90;;;6.87;100.00;97926.88;4982443;28;20174;-35
2022/03/16 04:49:08;;;;;;;;;;;7.40;99.90;;;6.84;100.00;97929.56;4982396;28;19951;-36
2022/03/16 04:51:34;;;;;;;;;;;7.40;99.90;;;6.82;100.00;97929.59;4981438;28;20469;-35
2022/03/16 04:53:59;;;;;;;;;;;7.40;99.90;;;6.83;100.00;97927.81;4981613;28;19917;-38
2022/03/16 04:56:25;;;;;;;;;;;7.40;99.90;;;6.83;100.00;97920.81;4982130;28;20258;-33
2022/03/16 04:58:51;;;;;;;;;;;7.40;99.90;;;6.87;100.00;97919.03;4982642;28;19914;-37
2022/03/16 05:01:16;;;;;;;;;;;7.40;99.90;;;6.82;100.00;97918.22;4979555;28;20011;-34
2022/03/16 05:03:44;;;;;;;;;;;7.40;99.90;;;6.85;100.00;97923.41;4982388;28;19952;-36
2022/03/16 05:06:10;;;;;;;;;;;7.40;99.90;;;6.83;100.00;97923.44;4983017;28;20486;-35
2022/03/16 05:08:37;;;;;;;;;;;7.40;99.90;;;6.83;100.00;97933.06;4981376;28;20009;-39
2022/03/16 05:11:04;;;;;;;;;;;7.40;99.90;;;6.78;100.00;97921.78;4983732;28;19925;-37
2022/03/16 05:13:30;;;;;;;;;;;7.40;99.90;;;6.78;100.00;97927.00;4982209;28;19926;-35
2022/03/16 05:15:56;;;;;;;;;;;7.40;99.90;;;6.77;100.00;97926.16;4981575;28;19949;-35
2022/03/16 05:18:23;;;;;;;;;;;7.40;99.90;;;6.77;100.00;97931.41;4980920;28;19973;-37
2022/03/16 05:20:49;;;;;;;;;;;7.30;99.90;;;6.78;100.00;97930.50;4982564;28;19960;-36
2022/03/16 05:23:14;;;;;;;;;;;7.40;99.90;;;6.78;100.00;97924.41;4981395;28;20367;-38
2022/03/16 05:25:40;;;;;;;;;;;7.40;99.90;;;6.84;100.00;97929.56;4979734;28;20232;-38
2022/03/16 05:28:06;;;;;;;;;;;7.40;99.90;;;6.80;100.00;97926.13;4980550;28;20017;-36
2022/03/16 05:30:31;;;;;;;;;;;7.40;99.90;;;6.78;100.00;97930.50;4980480;28;19918;-39
2022/03/16 05:33:01;;;;;;;;;;;7.40;99.90;;;6.78;100.00;97943.59;4982420;28;19913;-37
2022/03/16 05:35:27;;;;;;;;;;;7.40;99.90;;;6.76;100.00;97947.16;4981244;28;19914;-37
2022/03/16 05:37:53;;;;;;;;;;;7.40;99.90;;;6.71;100.00;97941.09;5001352;28;19918;-36
2022/03/16 05:40:19;;;;;;;;;;;7.40;99.90;;;6.73;100.00;97952.41;4981648;28;19913;-36
2022/03/16 05:42:44;;;;;;;;;;;7.40;99.90;;;6.75;100.00;97958.50;4990643;28;20117;-37
2022/03/16 05:45:10;;;;;;;;;;;7.30;99.90;;;6.75;100.00;97948.00;4987511;28;20302;-39
2022/03/16 05:47:36;;;;;;;;;;;7.40;99.90;;;6.79;100.00;97952.34;4979314;28;19968;-39
2022/03/16 05:50:03;;;;;;;;;;;7.40;99.90;;;6.83;100.00;97960.16;4989404;28;19917;-38
2022/03/16 05:52:29;;;;;;;;;;;7.40;99.90;;;6.85;100.00;97954.88;4985727;28;19917;-38
2022/03/16 05:54:56;;;;;;;;;;;7.40;99.90;;;6.82;100.00;97949.66;4980797;28;19925;-36
2022/03/16 05:57:22;;;;;;;;;;;7.40;99.90;;;6.86;100.00;97961.88;4977225;28;20019;-38
2022/03/16 05:59:48;;;;;;;;;;;7.50;99.90;;;6.85;100.00;97963.59;4975728;28;19921;-34
2022/03/16 06:02:14;;;;;;;;;;;7.50;99.90;;;6.94;100.00;97956.53;4978872;28;19917;-38
2022/03/16 06:04:40;;;;;;;;;;;7.40;99.90;;;6.85;100.00;97955.75;4979501;28;19932;-38
2022/03/16 06:07:07;;;;;;;;;;;7.50;99.90;;;6.88;100.00;97955.72;4975584;28;20317;-36
2022/03/16 06:09:34;;;;;;;;;;;7.50;99.90;;;6.83;100.00;97949.66;4979370;28;20040;-37
2022/03/16 06:12:00;;;;;;;;;;;7.50;99.90;;;6.90;100.00;97954.84;4978922;28;19964;-37
2022/03/16 06:14:26;;;;;;;;;;;7.50;99.90;;;6.91;100.00;97954.81;4977378;28;20013;-39
2022/03/16 06:16:52;;;;;;;;;;;7.50;99.90;;;6.95;100.00;97967.00;4977310;28;20384;-33
2022/03/16 06:19:19;;;;;;;;;;;7.50;99.90;;;6.90;100.00;97963.56;4974301;28;20376;-33
2022/03/16 06:21:44;;;;;;;;;;;7.50;99.90;;;6.93;100.00;97963.53;4977567;28;19953;-36
2022/03/16 06:24:11;;;;;;;;;;;7.50;99.90;;;6.98;100.00;97966.97;4978505;28;20016;-39
2022/03/16 06:26:40;;;;;;;;;;;7.50;99.90;;;7.05;100.00;97970.34;4973768;28;20285;-38
2022/03/16 06:29:06;;;;;;;;;;;7.60;99.90;;;7.07;100.00;97969.47;4977744;28;19918;-35
2022/03/16 06:31:32;;;;;;;;;;;7.60;99.90;;;7.12;100.00;97981.63;4973572;28;19922;-36
2022/03/16 06:33:58;;;;;;;;;;;7.60;99.90;;;7.14;100.00;97982.47;4975112;28;19984;-38
2022/03/16 06:36:24;;;;;;;;;;;7.70;99.90;;;7.11;100.00;97987.78;4971727;28;19953;-35
2022/03/16 06:38:50;;;;;;;;;;;7.70;99.90;;;7.15;100.00;97985.06;4976807;28;19929;-36
2022/03/16 06:41:17;;;;;;;;;;;7.70;99.90;;;7.21;100.00;97984.13;4976801;28;19925;-37
2022/03/16 06:43:43;;;;;;;;;;;7.70;99.90;;;7.17;100.00;97980.66;4981029;28;20078;-38
2022/03/16 06:46:09;;;;;;;;;;;7.80;99.90;;;7.20;100.00;97985.88;4978046;28;19960;-36
2022/03/16 06:48:34;;;;;;;;;;;7.70;99.90;;;7.10;100.00;97955.41;4977088;28;19914;-34
2022/03/16 06:51:00;;;;;;;;;;;7.80;99.90;;;7.28;100.00;97985.78;4979159;28;19972;-36
2022/03/16 06:53:27;;;;;;;;;;;7.80;99.90;;;7.25;100.00;97988.47;4977611;28;19952;-37
2022/03/16 06:55:54;;;;;;;;;;;7.80;99.90;;;7.25;100.00;97996.31;4977748;28;19918;-35
2022/03/16 06:58:19;;;;;;;;;;;7.90;99.90;;;7.31;100.00;97996.22;4978881;28;19910;-37
2022/03/16 07:00:45;;;;;;;;;;;7.80;99.90;;;7.34;100.00;97995.31;4978774;28;19921;-37
2022/03/16 07:03:10;;;;;;;;;;;7.90;99.90;;;7.36;100.00;97994.41;4979137;28;20005;-37
2022/03/16 07:05:39;;;;;;;;;;;7.90;99.90;;;7.41;100.00;97995.22;4972269;28;19922;-38
2022/03/16 07:08:07;;;;;;;;;;;7.90;99.90;;;7.41;100.00;97996.94;4977741;28;20334;-38
2022/03/16 07:10:33;;;;;;;;;;;8.00;99.90;;;7.44;100.00;97992.53;4978161;28;20180;-37
2022/03/16 07:12:59;;;;;;;;;;;8.00;99.90;;;7.47;100.00;97993.38;4976576;28;20004;-37
2022/03/16 07:15:25;;;;;;;;;;;8.00;99.90;;;7.47;100.00;97996.88;4977295;28;20016;-35
2022/03/16 07:17:51;;;;;;;;;;;8.10;99.90;;;7.43;100.00;97988.19;4978733;28;19914;-37
2022/03/16 07:20:17;;;;;;;;;;;8.10;99.90;;;7.48;100.00;97997.72;4978578;28;20012;-36
2022/03/16 07:22:42;;;;;;;;;;;8.00;99.90;;;7.49;100.00;97999.47;4979780;28;19921;-34
2022/03/16 07:25:09;;;;;;;;;;;8.10;99.90;;;7.50;100.00;98012.59;4968686;28;20049;-33
2022/03/16 07:27:39;;;;;;;;;;;8.10;99.90;;;7.53;100.00;98007.25;4982350;28;20394;-33
2022/03/16 07:30:06;;;;;;;;;;;8.10;99.90;;;7.54;100.00;98009.00;4982305;28;19913;-34
2022/03/16 07:32:33;;;;;;;;;;;8.10;99.90;;;7.59;100.00;98007.19;4979307;28;20290;-36
2022/03/16 07:34:58;;;;;;;;;;;8.20;99.90;;;7.64;100.00;98008.00;4979927;28;20008;-35
2022/03/16 07:37:24;;;;;;;;;;;8.20;99.90;;;7.64;100.00;98020.22;4987087;28;20012;-35
2022/03/16 07:39:50;;;;;;;;;;;8.20;99.90;;;7.69;100.00;98020.16;4984931;28;20287;-35
2022/03/16 07:42:15;;;;;;;;;;;8.20;99.90;;;7.64;100.00;98021.13;4979394;28;19925;-35
2022/03/16 07:44:41;;;;;;;;;;;8.20;99.90;;;7.67;100.00;98030.69;4981508;28;19921;-34
2022/03/16 07:47:07;;;;;;;;;;;8.20;99.90;;;7.73;100.00;98033.22;4989543;28;19921;-40
2022/03/16 07:49:34;;;;;;;;;;;8.20;99.90;;;7.56;100.00;98024.75;4986840;28;19929;-36
2022/03/16 07:52:00;;;;;;;;;;;8.10;99.90;;;7.54;100.00;98030.00;4985658;28;20007;-35
2022/03/16 07:54:25;;;;;;;;;;;8.10;99.90;;;7.43;100.00;98027.53;4994451;28;19922;-36
2022/03/16 07:56:52;;;;;;;;;;;8.10;99.90;;;7.43;100.00;98032.78;4984046;28;19941;-37
2022/03/16 07:59:18;;;;;;;;;;;8.00;99.90;;;7.47;100.00;98032.75;4983383;28;19914;-36
2022/03/16 08:01:44;;;;;;;;;;;8.00;99.90;;;7.40;100.00;98032.81;4982758;28;20025;-36
2022/03/16 08:04:10;;;;;;;;;;;8.00;99.90;;;7.41;100.00;98031.06;4981806;28;19925;-34
2022/03/16 08:06:35;;;;;;;;;;;8.00;99.90;;;7.47;100.00;98028.38;4983297;28;19918;-35
2022/03/16 08:09:01;;;;;;;;;;;8.00;99.90;;;7.54;100.00;98035.25;4984078;28;19914;-37
2022/03/16 08:11:27;;;;;;;;;;;8.10;99.90;;;7.57;100.00;98037.84;4982490;28;20436;-38
2022/03/16 08:13:52;;;;;;;;;;;8.10;99.90;;;7.51;100.00;98032.69;4983289;28;19918;-36
2022/03/16 08:16:18;;;;;;;;;;;8.10;99.90;;;7.47;100.00;98038.00;4966151;28;19913;-36
2022/03/16 08:18:43;;;;;;;;;;;8.10;99.90;;;7.57;100.00;98034.34;4982318;28;20343;-35
2022/03/16 08:21:11;;;;;;;;;;;8.10;99.90;;;7.41;100.00;98036.31;4981760;28;19914;-36
2022/03/16 08:23:38;;;;;;;;;;;8.10;99.90;;;7.34;100.00;98035.56;4980970;28;19972;-37
2022/03/16 08:26:06;;;;;;;;;;;8.10;99.90;;;7.39;100.00;98030.22;4982362;28;20395;-35
2022/03/16 08:28:32;;;;;;;;;;;8.00;99.90;;;7.39;100.00;98019.72;4980764;28;19924;-34
2022/03/16 08:30:59;;;;;;;;;;;8.10;99.90;;;7.43;100.00;98022.28;4980762;28;19913;-36
2022/03/16 08:33:24;;;;;;;;;;;8.10;99.90;;;7.51;100.00;98027.44;4980283;28;19922;-36
2022/03/16 08:35:51;;;;;;;;;;;8.10;99.90;;;7.56;100.00;98027.38;4981366;28;20421;-37
2022/03/16 08:38:16;;;;;;;;;;;8.20;99.90;;;7.63;100.00;98024.63;5002143;23;19922;-83
2022/03/16 08:40:42;;;;;;;;;;;8.20;99.90;;;7.70;100.00;98014.91;4994109;28;19944;-85
2022/03/16 08:43:08;;;;;;;;;;;8.30;99.90;;;7.87;100.00;98026.91;4992900;28;19921;-84
2022/03/16 08:45:34;;;;;;;;;;;8.50;99.90;;;8.01;100.00;98003.91;4986100;28;19925;-84
2022/03/16 08:47:59;;;;;;;;;;;8.70;99.90;;;8.19;100.00;98016.69;4990135;28;19917;-85
2022/03/16 08:50:25;;;;;;;;;;;8.80;99.90;;;8.21;100.00;98019.31;4988800;28;19917;-83
2022/03/16 08:52:51;;;;;;;;;;;8.90;99.90;;;8.31;100.00;98018.25;4988081;28;19910;-83
2022/03/16 08:55:17;;;;;;;;;;;9.00;99.90;;;8.46;100.00;98027.66;4972832;28;19914;-85
2022/03/16 08:57:45;;;;;;;;;;;9.00;99.90;;;8.40;100.00;98015.47;4988705;28;19917;-85
2022/03/16 09:00:15;;;;;;;;;;;9.10;99.90;;;8.67;100.00;98033.38;5011968;28;20009;-85
2022/03/16 09:02:41;;;;;;;;;;;9.20;99.90;;;8.78;100.00;98018.28;4998419;28;19972;-85
2022/03/16 09:05:08;;;;;;;;;;;9.30;99.90;;;8.84;100.00;98015.53;4974474;28;19914;-84
2022/03/16 09:07:33;;;;;;;;;;;9.30;99.90;;;8.93;100.00;98015.31;4973235;28;19913;-84
2022/03/16 09:09:59;;;;;;;;;;;9.40;99.90;;;8.95;100.00;98010.94;4992998;28;19913;-84
2022/03/16 09:12:25;;;;;;;;;;;9.50;99.90;;;9.06;100.00;98023.88;4974417;28;19921;-86
2022/03/16 09:14:50;;;;;;;;;;;9.60;99.90;;;9.09;100.00;98021.13;4974971;28;19965;-84
2022/03/16 09:17:17;;;;;;;;;;;9.60;99.90;;;9.07;100.00;98022.09;4989410;28;19917;-84
2022/03/16 09:19:44;;;;;;;;;;;9.70;99.90;;;9.10;100.00;98024.66;4967927;28;19920;-84
2022/03/16 09:22:09;;;;;;;;;;;9.70;99.90;;;9.12;100.00;97999.19;5008374;28;19932;-85
2022/03/16 09:24:38;;;;;;;;;;;9.80;99.90;;;9.21;100.00;97995.47;4997125;28;19914;-85
2022/03/16 09:27:05;;;;;;;;;;;9.90;99.90;;;9.43;100.00;98016.94;5000018;28;19921;-84
2022/03/16 09:29:31;;;;;;;;;;;10.00;99.90;;;9.47;100.00;98008.03;4992066;28;19937;-84
2022/03/16 09:31:56;;;;;;;;;;;10.00;99.90;;;9.49;100.00;97993.06;4995030;28;19976;-85
2022/03/16 09:34:22;;;;;;;;;;;10.10;99.90;;;9.70;100.00;98005.75;4985932;28;19918;-85
2022/03/16 09:36:48;;;;;;;;;;;10.30;99.90;;;9.82;100.00;98003.75;4975632;28;19953;-84
2022/03/16 09:39:13;;;;;;;;;;;10.40;99.90;;;10.11;100.00;98009.13;4988130;28;19964;-84
2022/03/16 09:41:39;;;;;;;;;;;10.60;99.90;;;10.22;100.00;98008.84;4991149;28;20021;-84
2022/03/16 09:44:06;;;;;;;;;;;10.80;99.90;;;10.26;100.00;97997.31;4992644;28;19945;-85
2022/03/16 09:46:36;;;;;;;;;;;10.80;99.90;;;10.42;100.00;98002.22;4988858;28;20287;-84
2022/03/16 09:49:07;;;;;;;;;;;10.90;99.90;;;10.30;100.00;97995.47;4991196;28;20363;-84
2022/03/16 09:51:35;;;;;;;;;;;11.00;99.90;;;10.50;100.00;98016.94;4989095;28;20209;-84
2022/03/16 09:54:04;;;;;;;;;;;11.00;99.90;;;10.53;100.00;98020.41;4988591;28;19914;-85
2022/03/16 09:56:32;;;;;;;;;;;11.10;99.90;;;10.55;100.00;98005.41;5013803;28;20276;-83
2022/03/16 09:58:57;;;;;;;;;;;11.10;99.90;;;10.58;100.00;98005.31;5012698;28;19933;-84
2022/03/16 10:01:23;;;;;;;;;;;11.20;99.90;;;10.73;100.00;97998.75;4984694;28;20295;-84
2022/03/16 10:03:49;;;;;;;;;;;11.20;99.90;;;10.81;100.00;98005.53;4985580;28;19925;-84
2022/03/16 10:06:17;;;;;;;;;;;11.30;99.90;;;10.93;100.00;98008.72;4986414;28;19910;-84
2022/03/16 10:13:13;;;;;;;;;;;11.50;99.90;;;10.98;100.00;97991.88;4986439;28;19929;-84
2022/03/16 10:14:16;;;;;;;;;;;11.70;99.90;;;11.27;99.17;97983.09;4984551;28;19929;-84
2022/03/16 10:19:48;;;;;;;;;;;12.00;99.90;;;11.57;99.83;97996.25;4988442;28;19963;-85
2022/03/16 10:22:26;;;;;;;;;;;12.10;99.90;;;11.55;98.20;97981.38;4985710;28;19914;-84
2022/03/16 10:25:03;;;;;;;;;;;12.10;99.90;;;11.76;98.46;97998.31;5008949;28;20724;-85
2022/03/16 10:27:29;;;;;;;;;;;12.20;99.90;;;11.78;97.25;97996.50;4997363;28;20117;-85
2022/03/16 10:29:56;;;;;;;;;;;12.30;99.90;;;11.90;97.58;97985.56;4997531;28;19981;-85
2022/03/16 10:32:25;;;;;;;;;;;12.30;99.90;;;12.10;96.91;97994.59;4988308;28;19969;-85
2022/03/16 10:34:55;;;;;;;;;;;12.50;99.90;;;12.11;95.09;97967.22;4988743;28;19925;-85
2022/03/16 10:37:23;;;;;;;;;;;12.70;99.90;;;12.19;93.74;97976.63;4987684;28;19920;-84
2022/03/16 10:39:52;;;;;;;;;;;12.70;99.90;;;12.19;93.03;97976.63;4971442;28;19922;-85
2022/03/16 10:48:19;;;;;;;;;;;12.90;99.90;;;12.47;88.70;97980.97;4973383;28;19920;-84
2022/03/16 10:50:47;;;;;;;;;;;13.00;99.90;;;12.36;88.62;97981.38;4971568;28;19952;-84
2022/03/16 10:53:14;;;;;;;;;;;12.90;99.90;;;12.47;87.56;97977.44;4953145;28;19917;-85
2022/03/16 10:55:40;;;;;;;;;;;12.90;99.90;;;12.42;88.44;97975.00;4989022;28;19928;-84
2022/03/16 10:58:07;;;;;;;;;;;12.90;99.90;;;12.43;87.34;97971.41;4988575;28;19925;-85
2022/03/16 11:00:37;;;;;;;;;;;12.90;99.90;;;12.33;86.50;97970.03;4966600;28;19998;-85
2022/03/16 11:03:07;;;;;;;;;;;12.80;99.90;;;12.23;88.81;97961.53;4972480;28;19918;-84
2022/03/16 11:05:36;;;;;;;;;;;12.80;99.90;;;12.25;87.59;97966.78;4970478;28;20015;-84
2022/03/16 11:08:08;;;;;;;;;;;12.70;99.90;;;12.09;86.69;97958.50;4987316;28;20005;-85
2022/03/16 11:10:36;;;;;;;;;;;12.70;99.90;;;12.06;87.99;97963.88;4971594;28;19917;-85
2022/03/16 11:15:50;;;;;;;;;;;12.60;99.90;;;12.20;86.81;97956.34;4989602;28;19924;-84
2022/03/16 11:18:19;;;;;;;;;;;12.70;99.90;;;12.02;86.64;97948.13;4968573;28;19952;-84
2022/03/16 11:20:56;;;;;;;;;;;12.70;99.90;;;12.13;87.74;97947.78;4971320;28;19984;-85
2022/03/16 11:26:14;;;;;;;;;;;12.70;99.90;;;12.16;86.28;97950.28;4998524;28;19925;-85
2022/03/16 11:29:17;;;;;;;;;;;12.70;99.90;;;12.21;86.32;97950.16;4989034;28;20982;-85
2022/03/16 11:31:43;;;;;;;;;;;12.70;99.90;;;12.15;84.63;97948.59;4969475;28;20373;-84
2022/03/16 11:34:10;;;;;;;;;;;12.80;99.90;;;12.23;84.30;97956.25;4995282;28;20004;-85
2022/03/16 11:36:40;;;;;;;;;;;12.80;99.90;;;12.35;85.67;97965.53;4953370;28;19909;-85
2022/03/16 11:39:20;;;;;;;;;;;12.80;99.90;;;12.41;85.09;97968.81;5004466;28;19914;-84